createdAt,value
2022-10-17T00:01:04.810Z,72.51
2022-10-17T00:03:33.455Z,72.72
2022-10-17T00:06:08.816Z,73.18
2022-10-17T00:08:37.467Z,73.18
2022-10-17T00:11:12.338Z,73.55
2022-10-17T00:13:40.039Z,73.92
2022-10-17T00:16:07.868Z,73.98
2022-10-17T00:18:35.264Z,74.32
2022-10-17T00:21:03.095Z,74.31
2022-10-17T00:23:30.676Z,74.66
2022-10-17T00:26:03.047Z,74.50
2022-10-17T00:28:32.114Z,74.80
2022-10-17T00:31:02.442Z,74.75
2022-10-17T00:33:31.054Z,74.86
2022-10-17T00:36:06.736Z,74.71
2022-10-17T00:38:36.741Z,74.65
2022-10-17T00:41:04.660Z,74.57
2022-10-17T00:43:50.408Z,74.67
2022-10-17T00:46:18.291Z,74.81
2022-10-17T00:48:46.291Z,74.88
2022-10-17T00:51:14.711Z,74.67
2022-10-17T00:53:42.611Z,74.57
2022-10-17T00:56:10.806Z,74.28
2022-10-17T00:58:38.234Z,74.01
2022-10-17T01:01:05.960Z,74.41
2022-10-17T01:03:33.403Z,74.83
2022-10-17T01:06:00.815Z,74.25
2022-10-17T01:08:28.696Z,73.85
2022-10-17T01:11:08.284Z,74.08
2022-10-17T01:13:46.789Z,74.37
2022-10-17T01:16:23.679Z,74.33
2022-10-17T01:19:16.793Z,74.42
2022-10-17T01:21:54.536Z,74.66
2022-10-17T01:24:37.896Z,74.97
2022-10-17T01:27:23.819Z,75.02
2022-10-17T01:30:26.114Z,75.02
2022-10-17T01:33:04.677Z,74.90
2022-10-17T01:35:40.546Z,75.09
2022-10-17T01:38:16.377Z,75.33
2022-10-17T01:41:02.861Z,75.66
2022-10-17T01:43:47.240Z,75.28
2022-10-17T01:46:41.400Z,75.29
2022-10-17T01:49:13.185Z,75.54
2022-10-17T01:51:47.674Z,76.08
2022-10-17T01:54:21.534Z,76.44
2022-10-17T01:56:53.422Z,76.83
2022-10-17T01:59:25.584Z,76.51
2022-10-17T02:01:56.083Z,76.40
2022-10-17T02:04:25.215Z,76.39
2022-10-17T02:06:52.643Z,76.53
2022-10-17T02:09:25.595Z,76.44
2022-10-17T02:12:15.181Z,76.50
2022-10-17T02:15:11.097Z,76.44
2022-10-17T02:17:50.597Z,76.33
2022-10-17T02:20:33.272Z,76.54
2022-10-17T02:23:00.990Z,76.21
2022-10-17T02:25:55.028Z,76.65
2022-10-17T02:28:44.226Z,76.67
2022-10-17T02:31:23.850Z,76.56
2022-10-17T02:33:58.030Z,77.15
2022-10-17T02:36:41.179Z,77.22
2022-10-17T02:39:10.451Z,76.81
2022-10-17T02:41:40.300Z,76.66
2022-10-17T02:44:08.789Z,76.54
2022-10-17T02:46:38.621Z,76.69
2022-10-17T02:49:10.668Z,77.40
2022-10-17T02:51:50.848Z,77.75
2022-10-17T02:54:30.364Z,78.20
2022-10-17T02:57:46.576Z,77.90
2022-10-17T03:00:16.708Z,77.70
2022-10-17T03:02:50.243Z,77.12
2022-10-17T03:05:21.351Z,76.98
2022-10-17T03:07:49.063Z,78.07
2022-10-17T03:10:17.107Z,78.04
2022-10-17T03:12:45.166Z,78.57
2022-10-17T03:15:13.572Z,79.12
2022-10-17T03:17:41.147Z,78.28
2022-10-17T03:20:09.792Z,77.73
2022-10-17T03:22:37.231Z,77.57
2022-10-17T03:25:05.106Z,77.54
2022-10-17T03:27:35.368Z,77.67
2022-10-17T03:30:03.284Z,78.20
2022-10-17T03:32:33.721Z,78.19
2022-10-17T03:35:02.293Z,78.18
2022-10-17T03:37:30.160Z,77.40
2022-10-17T03:39:57.779Z,78.36
2022-10-17T03:42:25.804Z,78.29
2022-10-17T03:44:53.192Z,78.60
2022-10-17T03:47:20.994Z,79.09
2022-10-17T03:49:49.673Z,78.83
2022-10-17T03:52:17.875Z,78.51
2022-10-17T03:54:45.660Z,77.93
2022-10-17T03:57:13.398Z,78.44
2022-10-17T03:59:40.798Z,78.85
2022-10-17T04:02:08.473Z,79.13
2022-10-17T04:04:36.527Z,78.84
2022-10-17T04:07:04.015Z,78.62
2022-10-17T04:09:31.442Z,78.31
2022-10-17T04:12:00.350Z,78.41
2022-10-17T04:14:27.856Z,78.34
2022-10-17T04:16:55.405Z,78.30
2022-10-17T04:19:23.156Z,77.97
2022-10-17T04:21:50.698Z,77.86
2022-10-17T04:24:18.228Z,77.93
2022-10-17T04:26:46.109Z,77.73
2022-10-17T04:29:13.808Z,77.62
2022-10-17T04:31:41.806Z,77.66
2022-10-17T04:34:11.008Z,77.72
2022-10-17T04:36:38.402Z,77.74
2022-10-17T04:39:06.037Z,77.26
2022-10-17T04:41:34.021Z,77.19
2022-10-17T04:44:02.645Z,77.11
2022-10-17T04:46:33.625Z,77.50
2022-10-17T04:49:01.396Z,77.31
2022-10-17T04:51:29.342Z,77.44
2022-10-17T04:53:58.160Z,76.93
2022-10-17T04:56:26.156Z,77.36
2022-10-17T04:58:53.827Z,77.08
2022-10-17T05:01:23.752Z,76.87
2022-10-17T05:03:52.257Z,77.53
2022-10-17T05:06:23.086Z,78.45
2022-10-17T05:08:53.325Z,78.29
2022-10-17T05:11:29.044Z,78.36
2022-10-17T05:13:59.932Z,78.27
2022-10-17T05:16:28.739Z,84.19
2022-10-17T05:18:58.328Z,87.81
2022-10-17T05:21:29.529Z,83.91
2022-10-17T05:23:57.919Z,75.93
2022-10-17T05:26:26.471Z,74.04
2022-10-17T05:28:54.835Z,74.01
2022-10-17T05:31:22.736Z,75.67
2022-10-17T05:33:50.176Z,75.76
2022-10-17T05:36:18.611Z,76.69
2022-10-17T05:38:51.238Z,76.89
2022-10-17T05:41:20.498Z,76.94
2022-10-17T05:43:48.319Z,77.47
2022-10-17T05:46:16.605Z,77.37
2022-10-17T05:48:44.608Z,77.31
2022-10-17T05:51:12.402Z,77.59
2022-10-17T05:53:42.187Z,77.49
2022-10-17T05:56:12.524Z,77.47
2022-10-17T05:58:50.853Z,78.73
2022-10-17T06:01:21.044Z,78.65
2022-10-17T06:03:48.833Z,78.30
2022-10-17T06:06:17.546Z,78.45
2022-10-17T06:08:46.298Z,78.62
2022-10-17T06:11:14.548Z,78.28
2022-10-17T06:13:42.238Z,78.37
2022-10-17T06:16:10.387Z,78.38
2022-10-17T06:18:39.201Z,78.34
2022-10-17T06:21:11.799Z,78.63
2022-10-17T06:23:40.071Z,78.24
2022-10-17T06:26:07.763Z,77.93
2022-10-17T06:28:36.099Z,77.64
2022-10-17T06:31:06.325Z,77.36
2022-10-17T06:33:34.200Z,77.03
2022-10-17T06:36:03.025Z,76.34
2022-10-17T06:38:31.748Z,76.07
2022-10-17T06:41:08.856Z,75.33
2022-10-17T06:43:41.053Z,74.78
2022-10-17T06:46:16.403Z,73.96
2022-10-17T06:48:46.532Z,73.53
2022-10-17T06:51:14.090Z,73.01
2022-10-17T06:53:42.754Z,72.39
2022-10-17T06:56:11.047Z,71.26
2022-10-17T06:58:40.311Z,69.95
2022-10-17T07:01:13.604Z,67.97
2022-10-17T07:03:41.708Z,67.03
2022-10-17T07:06:11.024Z,66.12
2022-10-17T07:08:44.051Z,64.85
2022-10-17T07:11:15.127Z,63.97
2022-10-17T07:13:43.212Z,64.27
2022-10-17T07:16:11.675Z,61.86
2022-10-17T07:18:40.367Z,62.97
2022-10-17T07:21:08.840Z,61.08
2022-10-17T07:23:37.784Z,60.35
2022-10-17T07:26:13.931Z,59.76
2022-10-17T07:28:44.128Z,58.82
2022-10-17T07:31:16.992Z,58.29
2022-10-17T07:36:18.792Z,57.51
2022-10-17T07:38:46.882Z,56.86
2022-10-17T07:41:17.926Z,57.12
2022-10-17T07:43:49.248Z,56.27
2022-10-17T07:46:17.240Z,55.61
2022-10-17T07:48:45.212Z,56.30
2022-10-17T07:51:13.035Z,55.60
2022-10-17T07:53:42.758Z,54.26
2022-10-17T07:56:13.122Z,53.49
2022-10-17T07:58:40.537Z,52.56
2022-10-17T08:01:14.741Z,52.41
2022-10-17T08:03:48.665Z,51.00
2022-10-17T08:06:16.152Z,51.37
2022-10-17T08:08:43.940Z,50.57
2022-10-17T08:11:13.229Z,50.05
2022-10-17T08:13:41.309Z,50.27
2022-10-17T08:16:12.069Z,48.49
2022-10-17T08:18:41.094Z,48.63
2022-10-17T08:21:09.843Z,48.75
2022-10-17T08:23:37.719Z,49.10
2022-10-17T08:26:10.514Z,49.09
2022-10-17T08:28:40.306Z,48.27
2022-10-17T08:31:11.330Z,47.84
2022-10-17T08:33:39.750Z,47.18
2022-10-17T08:36:09.104Z,47.40
2022-10-17T08:38:41.438Z,47.14
2022-10-17T08:41:29.963Z,47.62
2022-10-17T08:44:12.010Z,46.74
2022-10-17T08:46:42.391Z,46.24
2022-10-17T08:49:16.586Z,45.90
2022-10-17T08:51:51.591Z,45.28
2022-10-17T08:54:25.492Z,44.31
2022-10-17T08:56:55.394Z,45.47
2022-10-17T08:59:28.576Z,44.57
2022-10-17T09:02:14.042Z,43.28
2022-10-17T09:05:23.892Z,42.26
2022-10-17T09:08:31.972Z,43.45
2022-10-17T09:11:24.044Z,42.84
2022-10-17T09:14:08.027Z,43.55
2022-10-17T09:16:53.436Z,42.99
2022-10-17T09:19:25.963Z,43.44
2022-10-17T09:22:02.026Z,42.94
2022-10-17T09:24:41.039Z,43.27
2022-10-17T09:27:25.885Z,42.97
2022-10-17T09:30:21.380Z,42.98
2022-10-17T09:32:58.168Z,42.23
2022-10-17T09:35:29.055Z,41.28
2022-10-17T09:37:56.543Z,41.87
2022-10-17T09:40:33.816Z,42.34
2022-10-17T09:43:05.230Z,40.59
2022-10-17T09:45:37.831Z,40.55
2022-10-17T09:48:18.641Z,39.35
2022-10-17T09:50:53.882Z,40.90
2022-10-17T09:53:38.405Z,40.77
2022-10-17T09:56:12.987Z,40.70
2022-10-17T09:58:47.878Z,40.36
2022-10-17T10:01:24.021Z,40.95
2022-10-17T10:04:09.319Z,40.13
2022-10-17T10:06:37.337Z,39.62
2022-10-17T10:09:07.034Z,38.86
2022-10-17T10:11:51.283Z,39.06
2022-10-17T10:14:34.129Z,38.97
2022-10-17T10:17:03.825Z,39.05
2022-10-17T10:19:37.303Z,38.79
2022-10-17T10:22:14.770Z,38.34
2022-10-17T10:24:42.530Z,37.98
2022-10-17T10:27:18.101Z,37.85
2022-10-17T10:29:51.378Z,39.44
2022-10-17T10:32:30.007Z,39.40
2022-10-17T10:35:16.126Z,37.63
2022-10-17T10:37:46.438Z,36.94
2022-10-17T10:40:29.451Z,38.47
2022-10-17T10:43:04.188Z,37.80
2022-10-17T10:45:47.461Z,37.33
2022-10-17T10:48:18.704Z,37.26
2022-10-17T10:50:49.387Z,37.20
2022-10-17T10:53:26.063Z,37.15
2022-10-17T10:56:19.310Z,37.84
2022-10-17T10:58:54.401Z,36.14
2022-10-17T11:01:28.110Z,35.87
2022-10-17T11:04:26.513Z,35.29
2022-10-17T11:07:02.194Z,33.27
2022-10-17T11:09:55.192Z,32.76
2022-10-17T11:12:28.126Z,32.09
2022-10-17T11:15:10.048Z,32.92
2022-10-17T11:17:57.843Z,32.72
2022-10-17T11:20:36.876Z,34.61
2022-10-17T11:23:36.116Z,32.50
2022-10-17T11:26:09.135Z,33.02
2022-10-17T11:28:37.482Z,31.61
2022-10-17T11:31:18.440Z,31.74
2022-10-17T11:33:54.460Z,31.48
2022-10-17T11:36:28.293Z,33.42
2022-10-17T11:39:02.479Z,33.65
2022-10-17T11:41:41.979Z,33.37
2022-10-17T11:44:18.579Z,31.44
2022-10-17T11:46:51.751Z,32.31
2022-10-17T11:49:24.989Z,31.93
2022-10-17T11:52:03.393Z,32.38
2022-10-17T11:54:31.243Z,32.77
2022-10-17T11:57:07.135Z,34.16
2022-10-17T12:00:03.232Z,34.26
2022-10-17T12:02:37.792Z,33.60
2022-10-17T12:05:34.573Z,32.68
2022-10-17T12:08:14.006Z,32.29
2022-10-17T12:11:14.955Z,31.72
2022-10-17T12:13:51.983Z,32.10
2022-10-17T12:16:23.398Z,32.26
2022-10-17T12:19:10.684Z,32.06
2022-10-17T12:21:58.626Z,32.13
2022-10-17T12:24:36.128Z,33.19
2022-10-17T12:27:32.036Z,33.97
2022-10-17T12:30:07.532Z,32.99
2022-10-17T12:32:53.385Z,32.22
2022-10-17T12:35:25.391Z,31.93
2022-10-17T12:37:56.216Z,32.22
2022-10-17T12:40:34.927Z,31.96
2022-10-17T12:43:23.522Z,32.17
2022-10-17T12:45:52.188Z,32.90
2022-10-17T12:48:38.188Z,31.53
2022-10-17T12:51:35.175Z,31.65
2022-10-17T12:54:12.843Z,31.63
2022-10-17T12:56:44.336Z,32.05
2022-10-17T12:59:17.729Z,32.87
2022-10-17T13:01:48.031Z,32.39
2022-10-17T13:04:16.385Z,32.17
2022-10-17T13:06:53.404Z,31.53
2022-10-17T13:09:35.407Z,30.73
2022-10-17T13:12:06.499Z,32.35
2022-10-17T13:14:34.932Z,30.83
2022-10-17T13:17:07.556Z,31.26
2022-10-17T13:19:44.374Z,32.27
2022-10-17T13:22:17.356Z,31.80
2022-10-17T13:24:45.600Z,31.08
2022-10-17T13:27:31.415Z,31.57
2022-10-17T13:30:02.146Z,31.55
2022-10-17T13:32:39.696Z,31.50
2022-10-17T13:35:17.249Z,32.30
2022-10-17T13:37:51.537Z,31.69
2022-10-17T13:40:44.599Z,31.48
2022-10-17T13:43:19.457Z,31.05
2022-10-17T13:45:53.371Z,31.42
2022-10-17T13:48:24.838Z,31.07
2022-10-17T13:50:59.120Z,31.14
2022-10-17T13:53:42.503Z,32.18
2022-10-17T13:56:27.736Z,32.12
2022-10-17T13:58:59.232Z,31.91
2022-10-17T14:01:29.130Z,31.40
2022-10-17T14:04:08.326Z,31.68
2022-10-17T14:06:47.684Z,31.25
2022-10-17T14:09:24.575Z,32.05
2022-10-17T14:12:11.141Z,32.37
2022-10-17T14:15:05.212Z,31.66
2022-10-17T14:17:30.138Z,32.42
2022-10-17T14:20:34.379Z,32.47
2022-10-17T14:23:17.621Z,32.49
2022-10-17T14:25:41.218Z,32.68
2022-10-17T14:28:14.895Z,33.63
2022-10-17T14:31:02.947Z,33.03
2022-10-17T14:33:31.948Z,33.25
2022-10-17T14:36:02.591Z,33.72
2022-10-17T14:38:30.788Z,32.97
2022-10-17T14:44:07.079Z,33.52
2022-10-17T14:46:36.235Z,34.54
2022-10-17T14:49:19.436Z,34.25
2022-10-17T14:52:18.215Z,34.41
2022-10-17T14:54:50.691Z,34.43
2022-10-17T14:57:33.415Z,34.64
2022-10-17T15:00:01.257Z,35.07
2022-10-17T15:02:30.762Z,34.76
2022-10-17T15:04:58.551Z,35.15
2022-10-17T15:07:26.291Z,35.32
2022-10-17T15:09:54.137Z,35.11
2022-10-17T15:12:24.818Z,35.22
2022-10-17T15:14:53.498Z,35.92
2022-10-17T15:17:31.506Z,35.92
2022-10-17T15:19:59.258Z,36.19
2022-10-17T15:22:26.886Z,36.49
2022-10-17T15:24:54.394Z,36.79
2022-10-17T15:27:24.986Z,36.81
2022-10-17T15:29:53.168Z,37.05
2022-10-17T15:32:20.619Z,37.51
2022-10-17T15:34:48.477Z,38.09
2022-10-17T15:37:22.844Z,38.31
2022-10-17T15:39:54.337Z,38.42
2022-10-17T15:42:26.643Z,38.90
2022-10-17T15:44:54.897Z,40.06
2022-10-17T15:47:27.334Z,40.52
2022-10-17T15:49:55.863Z,41.00
2022-10-17T15:52:23.755Z,43.30
2022-10-17T15:54:51.822Z,44.09
2022-10-17T15:57:23.279Z,42.29
2022-10-17T15:59:51.895Z,42.09
2022-10-17T16:02:21.382Z,43.17
2022-10-17T16:04:50.460Z,44.30
2022-10-17T16:07:20.887Z,43.49
2022-10-17T16:09:48.706Z,44.39
2022-10-17T16:12:29.128Z,45.12
2022-10-17T16:14:57.365Z,45.61
2022-10-17T16:17:24.836Z,46.07
2022-10-17T16:19:52.239Z,46.37
2022-10-17T16:22:32.670Z,45.54
2022-10-17T16:25:07.809Z,46.88
2022-10-17T16:27:37.376Z,47.66
2022-10-17T16:30:07.273Z,46.00
2022-10-17T16:32:34.977Z,46.81
2022-10-17T16:35:02.492Z,45.73
2022-10-17T16:37:29.968Z,47.65
2022-10-17T16:39:57.732Z,46.93
2022-10-17T16:42:25.125Z,47.83
2022-10-17T16:44:52.524Z,47.21
2022-10-17T16:47:20.244Z,48.53
2022-10-17T16:49:47.652Z,47.66
2022-10-17T16:52:15.142Z,46.88
2022-10-17T16:54:42.802Z,47.02
2022-10-17T16:57:10.286Z,46.88
2022-10-17T16:59:37.722Z,48.02
2022-10-17T17:02:05.427Z,47.48
2022-10-17T17:04:32.873Z,47.67
2022-10-17T17:07:00.487Z,47.73
2022-10-17T17:09:28.248Z,47.76
2022-10-17T17:11:55.623Z,47.88
2022-10-17T17:14:23.046Z,48.16
2022-10-17T17:16:50.743Z,48.34
2022-10-17T17:19:18.167Z,48.03
2022-10-17T17:21:50.187Z,48.38
2022-10-17T17:24:21.158Z,49.07
2022-10-17T17:26:54.114Z,50.96
2022-10-17T17:29:23.121Z,50.67
2022-10-17T17:31:50.703Z,50.95
2022-10-17T17:34:18.468Z,51.15
2022-10-17T17:36:49.196Z,51.19
2022-10-17T17:39:17.131Z,51.03
2022-10-17T17:41:45.739Z,51.15
2022-10-17T17:44:16.672Z,51.84
2022-10-17T17:46:45.321Z,51.92
2022-10-17T17:49:13.169Z,52.09
2022-10-17T17:51:41.908Z,52.02
2022-10-17T17:54:11.627Z,52.88
2022-10-17T17:56:39.899Z,53.59
2022-10-17T17:59:07.323Z,53.33
2022-10-17T18:01:39.108Z,52.48
2022-10-17T18:04:08.987Z,52.62
2022-10-17T18:06:37.694Z,52.79
2022-10-17T18:09:06.962Z,52.85
2022-10-17T18:11:35.554Z,52.30
2022-10-17T18:14:05.953Z,51.81
2022-10-17T18:16:35.322Z,51.57
2022-10-17T18:19:09.077Z,51.93
2022-10-17T18:21:37.210Z,51.62
2022-10-17T18:24:05.320Z,51.25
2022-10-17T18:26:33.290Z,52.06
2022-10-17T18:29:00.950Z,51.89
2022-10-17T18:31:32.040Z,52.01
2022-10-17T18:34:03.100Z,52.74
2022-10-17T18:36:32.140Z,52.58
2022-10-17T18:39:00.884Z,52.41
2022-10-17T18:41:28.910Z,52.52
2022-10-17T18:43:57.545Z,52.62
2022-10-17T18:46:36.002Z,53.08
2022-10-17T18:49:03.851Z,52.45
2022-10-17T18:51:31.551Z,52.72
2022-10-17T18:53:59.016Z,52.97
2022-10-17T18:56:26.970Z,53.99
2022-10-17T18:58:55.282Z,53.91
2022-10-17T19:01:25.935Z,53.71
2022-10-17T19:03:55.970Z,53.97
2022-10-17T19:06:31.776Z,54.65
2022-10-17T19:09:01.077Z,53.92
2022-10-17T19:11:30.610Z,54.87
2022-10-17T19:14:01.672Z,55.28
2022-10-17T19:16:34.971Z,55.32
2022-10-17T19:19:10.852Z,55.10
2022-10-17T19:21:39.521Z,54.94
2022-10-17T19:24:10.744Z,54.68
2022-10-17T19:26:39.842Z,54.89
2022-10-17T19:29:07.484Z,55.00
2022-10-17T19:31:36.053Z,55.16
2022-10-17T19:34:04.432Z,55.32
2022-10-17T19:36:34.363Z,55.93
2022-10-17T19:39:07.096Z,55.55
2022-10-17T19:41:36.402Z,56.62
2022-10-17T19:44:03.927Z,56.08
2022-10-17T19:46:32.177Z,55.25
2022-10-17T19:49:00.036Z,56.26
2022-10-17T19:51:29.087Z,55.29
2022-10-17T19:54:00.408Z,55.09
2022-10-17T19:56:31.562Z,54.89
2022-10-17T19:58:59.298Z,56.41
2022-10-17T20:01:30.669Z,55.07
2022-10-17T20:03:58.459Z,56.62
2022-10-17T20:06:26.171Z,56.29
2022-10-17T20:08:54.108Z,56.84
2022-10-17T20:11:24.459Z,56.75
2022-10-17T20:13:53.015Z,56.67
2022-10-17T20:16:23.709Z,57.21
2022-10-17T20:18:54.584Z,56.91
2022-10-17T20:21:27.332Z,55.41
2022-10-17T20:23:55.500Z,55.94
2022-10-17T20:26:36.565Z,55.85
2022-10-17T20:29:11.241Z,57.21
2022-10-17T20:31:40.631Z,56.51
2022-10-17T20:34:11.960Z,55.63
2022-10-17T20:36:39.659Z,56.46
2022-10-17T20:39:07.509Z,56.11
2022-10-17T20:41:35.364Z,55.66
2022-10-17T20:44:03.135Z,55.99
2022-10-17T20:46:36.952Z,55.70
2022-10-17T20:49:09.872Z,56.58
2022-10-17T20:51:37.372Z,56.21
2022-10-17T20:54:05.169Z,55.86
2022-10-17T20:56:34.497Z,56.50
2022-10-17T20:59:07.942Z,56.10
2022-10-17T21:01:36.165Z,57.48
2022-10-17T21:06:53.501Z,56.56
2022-10-17T21:09:21.823Z,56.38
2022-10-17T21:11:52.545Z,57.41
2022-10-17T21:14:21.019Z,57.46
2022-10-17T21:16:48.895Z,57.26
2022-10-17T21:19:16.691Z,57.26
2022-10-17T21:21:46.680Z,56.83
2022-10-17T21:24:18.047Z,58.54
2022-10-17T21:26:47.410Z,58.63
2022-10-17T21:29:15.280Z,58.84
2022-10-17T21:31:44.806Z,59.04
2022-10-17T21:34:24.614Z,58.88
2022-10-17T21:36:52.936Z,59.17
2022-10-17T21:39:21.914Z,59.72
2022-10-17T21:41:49.366Z,59.77
2022-10-17T21:44:22.709Z,59.68
2022-10-17T21:46:51.409Z,60.19
2022-10-17T21:49:21.376Z,60.44
2022-10-17T21:51:49.793Z,60.63
2022-10-17T21:54:19.600Z,60.13
2022-10-17T21:56:47.183Z,60.88
2022-10-17T21:59:14.570Z,60.71
2022-10-17T22:01:44.939Z,61.11
2022-10-17T22:04:15.487Z,61.95
2022-10-17T22:06:44.651Z,61.61
2022-10-17T22:09:23.820Z,61.90
2022-10-17T22:11:54.947Z,62.65
2022-10-17T22:14:25.031Z,63.28
2022-10-17T22:16:53.223Z,63.46
2022-10-17T22:19:26.017Z,63.95
2022-10-17T22:21:54.756Z,63.89
2022-10-17T22:24:22.333Z,64.37
2022-10-17T22:26:50.324Z,64.70
2022-10-17T22:29:18.113Z,65.25
2022-10-17T22:31:45.885Z,64.97
2022-10-17T22:34:14.746Z,65.22
2022-10-17T22:36:42.901Z,65.43
2022-10-17T22:39:11.303Z,65.29
2022-10-17T22:41:38.819Z,65.42
2022-10-17T22:44:06.773Z,65.71
2022-10-17T22:46:34.623Z,66.20
2022-10-17T22:49:02.268Z,66.10
2022-10-17T22:51:29.957Z,65.86
2022-10-17T22:53:57.432Z,66.07
2022-10-17T22:56:24.913Z,66.36
2022-10-17T22:58:52.708Z,66.48
2022-10-17T23:01:22.946Z,66.68
2022-10-17T23:03:51.636Z,66.60
2022-10-17T23:06:20.216Z,66.77
2022-10-17T23:08:47.990Z,66.63
2022-10-17T23:11:15.691Z,66.83
2022-10-17T23:13:43.351Z,66.85
2022-10-17T23:16:10.741Z,67.47
2022-10-17T23:18:38.947Z,67.40
2022-10-17T23:21:07.111Z,67.00
2022-10-17T23:23:34.575Z,67.36
2022-10-17T23:26:09.789Z,67.25
2022-10-17T23:28:38.571Z,67.53
2022-10-17T23:31:13.051Z,67.44
2022-10-17T23:33:41.516Z,67.47
2022-10-17T23:36:11.064Z,67.73
2022-10-17T23:38:40.038Z,67.83
2022-10-17T23:41:08.709Z,67.82
2022-10-17T23:43:36.386Z,67.97
2022-10-17T23:46:05.836Z,67.86
2022-10-17T23:48:33.995Z,67.56
2022-10-17T23:51:01.607Z,67.69
2022-10-17T23:53:29.012Z,67.61
2022-10-17T23:55:56.695Z,67.82
2022-10-17T23:58:24.374Z,67.88
